Gerakas, Greece

4:47 AM EEST on August 29, 2015 (GMT +0300)
Kantza Pallini | | Change Station
CLOSE
Current Station
Personal Weather Station
Location: Kantza Pallini Attica, GREECE
Elevation: 590 ft
Nearby Weather Stations

Elev 590 ft 37.99 °N, 23.86 °E | Updated 3 seconds ago

Clear
Clear
78.5 °F
Feels Like 79 °F
N
4.4
Wind Variable Wind from NE
Gusts 4.4 mph

Today
High -- | Low -- °F
--% Chance of Precip.
Yesterday
High -- | Low -- °F
Precip. -- in
6:51 AM 7:59 PM
Waxing Gibbous, 99% visible
Pressure 30.04 in
Visibility -9999.0 miles
Clouds
Heat Index 79 °F
Dew Point 49 °F
Humidity 36%
Rainfall 0.00 in
Snow Depth Not available.
UV Not available.
Pollen Not available.
Air Quality Not available.
Flu Activity Not available.
METAR LGAV 290120Z 01012KT CAVOK 26/08 Q1017 NOSIG
Pressure 30.04 in
Visibility -9999.0 miles
Clouds
Heat Index 79 °F
Dew Point 49 °F
Humidity 36%
Rainfall 0.00 in
Snow Depth Not available.
UV Not available.
Pollen Not available.
Air Quality Not available.
Flu Activity Not available.
METAR LGAV 290120Z 01012KT CAVOK 26/08 Q1017 NOSIG

10-Day Weather Forecast

×

Almanac

Astronomy

Aug. 29, 2015 Rise Set
Actual Time
Civil Twilight
Nautical Twilight
Astronomical Twilight
Moon
Length of Visible Light
Length of Day
Tomorrow will be .
, % of the Moon is Illuminated

Today's Extremes

Country Highs Country Lows

Community

WunderPhotos

Upload Photos

1,850,566 photos uploaded!

WunderBlogs® & News

Nearby

Air Quality

  Air Quality AQ Index Pollutant
Not available.

Snow Depth

Station Depth Elevation

Earthquake Activity

City Distance Mag. Time & Date
Minimum magnitude displayed is 2.5.

Coastal Water Temperatures

Place Temperature

Stations

Nearby Weather Stations

Station Location Temp. Windchill Dew Point Humidity Wind Precip. Elev Updated Type